createdAt,value
2018-09-25T00:00:15.279Z,1.20
2018-09-25T00:02:49.170Z,1.10
2018-09-25T00:05:23.109Z,1.20
2018-09-25T00:07:57.508Z,1.20
2018-09-25T00:10:31.394Z,1.17
2018-09-25T00:13:05.300Z,1.50
2018-09-25T00:15:39.056Z,1.10
2018-09-25T00:18:12.926Z,1.40
2018-09-25T00:20:46.694Z,1.13
2018-09-25T00:23:20.657Z,1.10
2018-09-25T00:25:54.535Z,1.00
2018-09-25T00:28:28.897Z,1.13
2018-09-25T00:31:03.610Z,1.37
2018-09-25T00:33:37.542Z,1.10
2018-09-25T00:36:11.446Z,1.20
2018-09-25T00:38:46.031Z,0.97
2018-09-25T00:41:19.949Z,1.10
2018-09-25T00:43:54.456Z,1.10
2018-09-25T00:46:28.413Z,0.90
2018-09-25T00:49:02.367Z,0.90
2018-09-25T00:51:36.157Z,1.23
2018-09-25T00:54:10.450Z,1.07
2018-09-25T00:56:44.225Z,1.00
2018-09-25T00:59:18.640Z,0.90
2018-09-25T01:01:52.610Z,1.07
2018-09-25T01:04:26.489Z,0.83
2018-09-25T01:07:00.293Z,0.80
2018-09-25T01:09:34.257Z,1.37
2018-09-25T01:12:08.246Z,0.90
2018-09-25T01:14:42.021Z,0.83
2018-09-25T01:17:15.909Z,1.20
2018-09-25T01:19:49.850Z,0.80
2018-09-25T01:22:23.629Z,1.40
2018-09-25T01:24:57.490Z,0.93
2018-09-25T01:27:31.350Z,0.90
2018-09-25T01:30:05.073Z,1.20
2018-09-25T01:32:38.842Z,1.10
2018-09-25T01:35:13.059Z,1.10
2018-09-25T01:37:47.015Z,1.00
2018-09-25T01:40:21.081Z,1.00
2018-09-25T01:42:55.601Z,1.00
2018-09-25T01:45:29.636Z,0.97
2018-09-25T01:48:03.699Z,1.00
2018-09-25T01:50:37.742Z,0.87
2018-09-25T01:53:11.840Z,1.10
2018-09-25T01:55:45.904Z,0.93
2018-09-25T01:58:19.846Z,1.00
2018-09-25T02:00:53.766Z,0.80
2018-09-25T02:03:27.686Z,0.87
2018-09-25T02:06:01.714Z,0.73
2018-09-25T02:08:35.550Z,0.90
2018-09-25T02:11:09.370Z,0.80
2018-09-25T02:13:43.344Z,0.90
2018-09-25T02:16:17.233Z,0.90
2018-09-25T02:18:51.504Z,1.40
2018-09-25T02:21:25.266Z,1.00
2018-09-25T02:23:59.504Z,1.17
2018-09-25T02:26:33.371Z,1.20
2018-09-25T02:29:07.245Z,1.20
2018-09-25T02:31:41.109Z,0.97
2018-09-25T02:34:14.990Z,1.20
2018-09-25T02:36:48.898Z,1.27
2018-09-25T02:39:23.123Z,1.27
2018-09-25T02:41:56.895Z,1.00
2018-09-25T02:44:31.105Z,1.00
2018-09-25T02:47:04.974Z,1.30
2018-09-25T02:49:38.977Z,1.07
2018-09-25T02:52:12.988Z,1.20
2018-09-25T02:54:46.838Z,1.03
2018-09-25T02:57:20.734Z,1.20
2018-09-25T02:59:55.072Z,1.10
2018-09-25T03:02:28.941Z,1.03
2018-09-25T03:05:03.446Z,1.17
2018-09-25T03:07:37.294Z,0.93
2018-09-25T03:10:11.778Z,1.10
2018-09-25T03:12:46.083Z,1.20
2018-09-25T03:15:19.857Z,0.97
2018-09-25T03:17:53.834Z,1.40
2018-09-25T03:20:27.654Z,2.07
2018-09-25T03:23:01.802Z,1.30
2018-09-25T03:25:35.806Z,1.20
2018-09-25T03:28:09.928Z,1.50
2018-09-25T03:30:45.831Z,1.30
2018-09-25T03:33:19.752Z,1.60
2018-09-25T03:35:57.713Z,1.33
2018-09-25T03:38:31.778Z,1.40
2018-09-25T03:41:05.637Z,1.47
2018-09-25T03:43:39.636Z,1.70
2018-09-25T03:46:13.954Z,1.80
2018-09-25T03:48:47.732Z,2.03
2018-09-25T03:51:21.864Z,1.80
2018-09-25T03:53:55.689Z,1.70
2018-09-25T03:56:29.396Z,1.93
2018-09-25T03:59:03.645Z,1.90
2018-09-25T04:01:37.543Z,2.20
2018-09-25T04:04:11.610Z,2.10
2018-09-25T04:06:45.433Z,2.23
2018-09-25T04:09:19.294Z,2.00
2018-09-25T04:11:53.213Z,2.27
2018-09-25T04:14:35.670Z,2.47
2018-09-25T04:17:09.369Z,2.70
2018-09-25T04:19:43.447Z,2.67
2018-09-25T04:22:17.345Z,2.57
2018-09-25T04:24:51.030Z,2.30
2018-09-25T04:27:24.807Z,2.30
2018-09-25T04:29:58.720Z,2.73
2018-09-25T04:32:33.038Z,2.80
2018-09-25T04:35:06.898Z,2.73
2018-09-25T04:37:40.565Z,2.53
2018-09-25T04:40:14.537Z,2.43
2018-09-25T04:42:48.806Z,2.33
2018-09-25T04:45:22.635Z,2.80
2018-09-25T04:47:56.650Z,2.20
2018-09-25T04:50:30.766Z,2.90
2018-09-25T04:53:04.637Z,2.27
2018-09-25T04:55:38.870Z,2.43
2018-09-25T04:58:12.674Z,2.50
2018-09-25T05:00:48.646Z,2.27
2018-09-25T05:03:22.515Z,2.60
2018-09-25T05:05:56.358Z,2.50
2018-09-25T05:08:30.153Z,4.30
2018-09-25T05:11:03.966Z,3.17
2018-09-25T05:13:37.954Z,3.30
2018-09-25T05:16:11.807Z,2.70
2018-09-25T05:18:45.806Z,2.90
2018-09-25T05:21:19.793Z,2.60
2018-09-25T05:23:53.702Z,2.97
2018-09-25T05:26:28.690Z,2.50
2018-09-25T05:29:02.561Z,2.40
2018-09-25T05:31:36.566Z,2.20
2018-09-25T05:34:10.465Z,2.30
2018-09-25T05:36:44.305Z,2.40
2018-09-25T05:39:18.081Z,2.73
2018-09-25T05:41:51.986Z,2.27
2018-09-25T05:44:25.785Z,2.30
2018-09-25T05:46:59.767Z,2.17
2018-09-25T05:49:33.600Z,2.00
2018-09-25T05:52:07.651Z,1.80
2018-09-25T05:54:41.554Z,1.70
2018-09-25T05:57:15.529Z,2.10
2018-09-25T05:59:49.581Z,1.90
2018-09-25T06:02:23.532Z,2.17
2018-09-25T06:04:57.539Z,1.67
2018-09-25T06:07:31.217Z,1.83
2018-09-25T06:10:05.075Z,2.57
2018-09-25T06:12:39.152Z,1.70
2018-09-25T06:15:13.053Z,2.57
2018-09-25T06:17:46.971Z,1.90
2018-09-25T06:20:20.741Z,2.20
2018-09-25T06:22:54.624Z,2.73
2018-09-25T06:25:28.861Z,2.53
2018-09-25T06:28:02.849Z,2.03
2018-09-25T06:30:36.762Z,2.03
2018-09-25T06:33:10.874Z,1.80
2018-09-25T06:35:44.863Z,1.93
2018-09-25T06:38:19.014Z,1.90
2018-09-25T06:40:52.791Z,2.00
2018-09-25T06:43:27.199Z,1.57
2018-09-25T06:46:01.097Z,1.60
2018-09-25T06:48:34.985Z,1.70
2018-09-25T06:51:08.935Z,1.80
2018-09-25T06:53:43.354Z,1.93
2018-09-25T06:56:17.226Z,2.17
2018-09-25T06:58:51.223Z,2.00
2018-09-25T07:01:25.131Z,1.97
2018-09-25T07:03:59.062Z,1.70
2018-09-25T07:06:33.376Z,1.67
2018-09-25T07:09:07.330Z,3.23
2018-09-25T07:11:41.301Z,2.43
2018-09-25T07:14:15.558Z,2.43
2018-09-25T07:16:49.324Z,3.20
2018-09-25T07:19:23.169Z,2.30
2018-09-25T07:21:57.202Z,2.87
2018-09-25T07:24:31.764Z,2.30
2018-09-25T07:27:05.940Z,2.53
2018-09-25T07:29:39.861Z,1.67
2018-09-25T07:32:13.547Z,1.80
2018-09-25T07:34:47.242Z,1.60
2018-09-25T07:37:21.107Z,1.43
2018-09-25T07:39:54.915Z,1.87
2018-09-25T07:42:28.707Z,1.63
2018-09-25T07:45:02.583Z,1.73
2018-09-25T07:47:36.409Z,1.20
2018-09-25T07:50:10.222Z,1.63
2018-09-25T07:52:44.579Z,1.75
2018-09-25T07:55:18.811Z,1.57
2018-09-25T07:57:52.530Z,1.63
2018-09-25T08:00:26.432Z,1.80
2018-09-25T08:03:00.224Z,2.00
2018-09-25T08:05:34.181Z,1.60
2018-09-25T08:08:07.889Z,1.70
2018-09-25T08:10:48.314Z,1.60
2018-09-25T08:13:22.101Z,1.60
2018-09-25T08:15:55.974Z,1.50
2018-09-25T08:18:29.634Z,1.33
2018-09-25T08:21:03.502Z,1.40
2018-09-25T08:23:37.313Z,1.37
2018-09-25T08:26:11.819Z,1.75
2018-09-25T08:28:46.322Z,1.85
2018-09-25T08:31:20.020Z,1.63
2018-09-25T08:33:53.750Z,1.50
2018-09-25T08:36:27.602Z,1.23
2018-09-25T08:39:01.593Z,1.80
2018-09-25T08:41:35.561Z,1.80
2018-09-25T08:44:09.410Z,1.60
2018-09-25T08:46:43.235Z,1.50
2018-09-25T08:49:16.874Z,1.63
2018-09-25T08:51:50.711Z,1.40
2018-09-25T08:54:24.546Z,1.73
2018-09-25T08:56:58.408Z,1.20
2018-09-25T08:59:32.227Z,1.30
2018-09-25T09:02:06.009Z,1.70
2018-09-25T09:04:40.044Z,1.67
2018-09-25T09:07:13.809Z,1.30
2018-09-25T09:09:47.781Z,1.30
2018-09-25T09:12:22.185Z,1.40
2018-09-25T09:14:55.923Z,1.67
2018-09-25T09:17:29.613Z,1.37
2018-09-25T09:20:04.148Z,1.70
2018-09-25T09:22:38.345Z,1.53
2018-09-25T09:25:12.263Z,1.20
2018-09-25T09:27:46.254Z,1.20
2018-09-25T09:30:19.964Z,1.23
2018-09-25T09:32:53.912Z,1.20
2018-09-25T09:35:27.650Z,1.33
2018-09-25T09:38:01.540Z,1.30
2018-09-25T09:40:35.565Z,1.67
2018-09-25T09:43:09.446Z,1.20
2018-09-25T09:45:43.330Z,1.40
2018-09-25T09:48:17.231Z,1.43
2018-09-25T09:50:50.842Z,1.60
2018-09-25T09:53:24.717Z,1.57
2018-09-25T09:55:58.318Z,1.40
2018-09-25T09:58:32.217Z,1.30
2018-09-25T10:01:05.821Z,1.10
2018-09-25T10:03:39.667Z,1.20
2018-09-25T10:06:13.788Z,1.27
2018-09-25T10:08:47.570Z,1.10
2018-09-25T10:11:21.294Z,1.20
2018-09-25T10:13:55.133Z,1.60
2018-09-25T10:16:28.834Z,1.30
2018-09-25T10:19:02.577Z,1.30
2018-09-25T10:21:36.401Z,1.20
2018-09-25T10:24:10.155Z,1.67
2018-09-25T10:26:43.838Z,1.27
2018-09-25T10:29:17.689Z,1.80
2018-09-25T10:31:51.593Z,1.50
2018-09-25T10:34:25.527Z,1.30
2018-09-25T10:36:59.458Z,1.50
2018-09-25T10:39:33.139Z,1.50
2018-09-25T10:42:06.967Z,1.43
2018-09-25T10:44:40.935Z,1.57
2018-09-25T10:47:14.739Z,1.20
2018-09-25T10:49:48.911Z,1.10
2018-09-25T10:52:22.782Z,1.37
2018-09-25T10:54:56.841Z,1.30
2018-09-25T10:57:30.508Z,1.47
2018-09-25T11:00:04.550Z,3.20
2018-09-25T11:02:38.527Z,1.70
2018-09-25T11:05:12.654Z,1.40
2018-09-25T11:07:46.453Z,1.47
2018-09-25T11:10:20.397Z,1.40
2018-09-25T11:12:53.986Z,1.13
2018-09-25T11:15:27.849Z,2.20
2018-09-25T11:18:01.530Z,1.40
2018-09-25T11:20:35.319Z,1.30
2018-09-25T11:23:09.014Z,1.43
2018-09-25T11:25:42.922Z,1.30
2018-09-25T11:28:16.758Z,1.10
2018-09-25T11:33:29.761Z,1.10
2018-09-25T11:36:03.693Z,1.50
2018-09-25T11:38:37.626Z,1.77
2018-09-25T11:41:11.349Z,1.50
2018-09-25T11:43:45.331Z,1.07
2018-09-25T11:46:19.044Z,1.47
2018-09-25T11:48:52.779Z,1.37
2018-09-25T11:51:26.802Z,1.10
2018-09-25T11:54:00.418Z,1.10
2018-09-25T11:56:34.127Z,1.03
2018-09-25T11:59:07.743Z,1.10
2018-09-25T12:01:42.423Z,1.20
2018-09-25T12:04:16.306Z,1.37
2018-09-25T12:06:50.239Z,1.30
2018-09-25T12:09:24.089Z,1.20
2018-09-25T12:11:57.857Z,1.30
2018-09-25T12:14:31.811Z,1.00
2018-09-25T12:17:05.594Z,1.20
2018-09-25T12:19:39.350Z,0.90
2018-09-25T12:22:13.286Z,1.20
2018-09-25T12:24:47.285Z,1.00
2018-09-25T12:27:21.192Z,1.00
2018-09-25T12:29:55.046Z,1.10
2018-09-25T12:32:28.945Z,1.10
2018-09-25T12:35:02.716Z,0.97
2018-09-25T12:37:36.535Z,0.90
2018-09-25T12:40:10.420Z,0.80
2018-09-25T12:42:44.222Z,0.90
2018-09-25T12:45:18.418Z,1.10
2018-09-25T12:47:52.192Z,1.00
2018-09-25T12:50:25.914Z,1.00
2018-09-25T12:52:59.684Z,0.93
2018-09-25T12:55:33.566Z,0.93
2018-09-25T12:58:07.347Z,0.80
2018-09-25T13:00:41.079Z,0.90
2018-09-25T13:03:16.725Z,0.73
2018-09-25T13:05:50.493Z,0.83
2018-09-25T13:08:24.350Z,0.70
2018-09-25T13:10:58.097Z,0.80
2018-09-25T13:13:31.877Z,0.60
2018-09-25T13:16:05.759Z,0.90
2018-09-25T13:18:39.662Z,0.73
2018-09-25T13:21:13.386Z,0.80
2018-09-25T13:23:47.064Z,0.70
2018-09-25T13:26:20.864Z,0.80
2018-09-25T13:28:54.563Z,0.70
2018-09-25T13:31:28.274Z,0.80
2018-09-25T13:34:02.143Z,0.90
2018-09-25T13:36:35.756Z,1.03
2018-09-25T13:39:10.910Z,0.80
2018-09-25T13:41:44.525Z,0.90
2018-09-25T13:44:18.361Z,0.90
2018-09-25T13:46:52.146Z,0.90
2018-09-25T13:49:25.936Z,1.13
2018-09-25T13:52:00.254Z,0.90
2018-09-25T13:54:34.218Z,1.10
2018-09-25T13:57:07.899Z,0.87
2018-09-25T13:59:42.835Z,0.83
2018-09-25T14:02:16.650Z,0.90
2018-09-25T14:04:51.571Z,1.00
2018-09-25T14:07:25.368Z,1.10
2018-09-25T14:09:59.093Z,0.87
2018-09-25T14:12:32.779Z,1.00
2018-09-25T14:15:06.561Z,0.97
2018-09-25T14:17:40.197Z,1.30
2018-09-25T14:20:14.227Z,1.17
2018-09-25T14:22:47.926Z,0.90
2018-09-25T14:25:21.754Z,1.00
2018-09-25T14:27:55.406Z,0.80
2018-09-25T14:30:29.155Z,0.80
2018-09-25T14:33:02.906Z,0.80
2018-09-25T14:35:37.130Z,0.80
2018-09-25T14:38:10.894Z,0.90
2018-09-25T14:40:44.793Z,1.00
2018-09-25T14:43:18.578Z,1.10
2018-09-25T14:45:52.487Z,3.33
2018-09-25T14:48:26.473Z,1.10
2018-09-25T14:51:00.488Z,1.30
2018-09-25T14:53:34.444Z,1.00
2018-09-25T14:56:08.152Z,0.90
2018-09-25T14:58:41.921Z,1.07
2018-09-25T15:01:15.790Z,0.97
2018-09-25T15:03:49.448Z,1.10
2018-09-25T15:06:23.227Z,0.77
2018-09-25T15:08:56.957Z,1.70
2018-09-25T15:11:30.743Z,0.90
2018-09-25T15:14:04.433Z,1.17
2018-09-25T15:16:38.113Z,1.30
2018-09-25T15:19:12.503Z,0.87
2018-09-25T15:21:46.620Z,1.10
2018-09-25T15:24:20.388Z,1.13
2018-09-25T15:26:54.072Z,1.20
2018-09-25T15:29:28.174Z,1.30
2018-09-25T15:32:02.008Z,1.30
2018-09-25T15:34:35.801Z,1.30
2018-09-25T15:37:09.768Z,1.10
2018-09-25T15:39:43.572Z,1.30
2018-09-25T15:42:17.560Z,1.07
2018-09-25T15:44:51.189Z,1.20
2018-09-25T15:47:24.984Z,1.50
2018-09-25T15:49:58.914Z,1.20
2018-09-25T15:52:32.560Z,1.83
2018-09-25T15:55:06.220Z,2.03
2018-09-25T15:57:40.035Z,1.70
2018-09-25T16:00:14.224Z,2.20
2018-09-25T16:02:48.292Z,1.70
2018-09-25T16:05:22.404Z,1.70
2018-09-25T16:07:56.325Z,1.73
2018-09-25T16:10:30.151Z,1.83
2018-09-25T16:13:03.949Z,2.27
2018-09-25T16:15:37.884Z,3.27
2018-09-25T16:18:11.801Z,1.90
2018-09-25T16:20:45.439Z,1.80
2018-09-25T16:23:19.346Z,1.87
2018-09-25T16:25:52.973Z,2.00
2018-09-25T16:28:26.788Z,3.03
2018-09-25T16:31:00.608Z,2.33
2018-09-25T16:33:34.327Z,2.90
2018-09-25T16:36:08.229Z,3.10
2018-09-25T16:38:41.933Z,2.53
2018-09-25T16:41:15.740Z,2.60
2018-09-25T16:43:49.408Z,2.20
2018-09-25T16:46:23.209Z,2.33
2018-09-25T16:48:57.096Z,2.60
2018-09-25T16:51:30.744Z,3.40
2018-09-25T16:54:04.416Z,3.20
2018-09-25T16:56:38.080Z,2.87
2018-09-25T16:59:11.761Z,2.57
2018-09-25T17:01:46.392Z,2.63
2018-09-25T17:04:20.019Z,2.60
2018-09-25T17:06:54.031Z,2.77
2018-09-25T17:09:27.807Z,2.43
2018-09-25T17:14:38.182Z,2.70
2018-09-25T17:17:12.096Z,2.57
2018-09-25T17:19:46.074Z,2.40
2018-09-25T17:22:20.069Z,2.63
2018-09-25T17:24:53.969Z,2.90
2018-09-25T17:27:28.000Z,4.17
2018-09-25T17:30:01.860Z,6.43
2018-09-25T17:32:35.656Z,8.80
2018-09-25T17:35:09.450Z,7.17
2018-09-25T17:37:43.136Z,6.23
2018-09-25T17:40:16.919Z,5.90
2018-09-25T17:42:50.561Z,4.63
2018-09-25T17:45:24.499Z,4.23
2018-09-25T17:47:58.144Z,4.00
2018-09-25T17:50:32.050Z,4.37
2018-09-25T17:53:05.693Z,4.10
2018-09-25T17:55:39.464Z,4.27
2018-09-25T17:58:13.258Z,4.73
2018-09-25T18:00:47.141Z,4.20
2018-09-25T18:03:20.864Z,4.13
2018-09-25T18:05:54.784Z,4.37
2018-09-25T18:08:28.693Z,3.93
2018-09-25T18:11:02.620Z,3.80
2018-09-25T18:13:36.480Z,3.17
2018-09-25T18:16:10.291Z,4.40
2018-09-25T18:18:44.096Z,3.83
2018-09-25T18:21:17.852Z,3.33
2018-09-25T18:23:51.812Z,3.77
2018-09-25T18:26:25.564Z,2.77
2018-09-25T18:28:59.328Z,3.20
2018-09-25T18:31:32.989Z,3.37
2018-09-25T18:34:06.680Z,3.53
2018-09-25T18:36:40.395Z,3.20
2018-09-25T18:39:14.342Z,3.30
2018-09-25T18:41:48.296Z,4.27
2018-09-25T18:44:21.980Z,5.13
2018-09-25T18:46:55.658Z,4.20
2018-09-25T18:49:29.401Z,4.63
2018-09-25T18:52:03.199Z,6.33
2018-09-25T18:54:39.808Z,4.30
2018-09-25T18:57:16.254Z,3.30
2018-09-25T18:59:50.132Z,5.53
2018-09-25T19:02:26.085Z,5.67
2018-09-25T19:05:00.565Z,4.77
2018-09-25T19:07:34.577Z,4.27
2018-09-25T19:10:08.456Z,3.23
2018-09-25T19:12:42.431Z,3.00
2018-09-25T19:15:16.153Z,2.90
2018-09-25T19:17:50.304Z,3.47
2018-09-25T19:20:24.090Z,2.77
2018-09-25T19:22:57.906Z,2.93
2018-09-25T19:25:31.964Z,3.27
2018-09-25T19:28:05.878Z,3.20
2018-09-25T19:30:39.916Z,3.43
2018-09-25T19:33:13.813Z,3.23
2018-09-25T19:35:47.575Z,3.20
2018-09-25T19:38:21.870Z,3.30
2018-09-25T19:40:55.833Z,2.97
2018-09-25T19:43:29.631Z,2.90
2018-09-25T19:46:03.592Z,3.90
2018-09-25T19:48:37.676Z,3.23
2018-09-25T19:51:11.703Z,4.20
2018-09-25T19:53:45.572Z,4.10
2018-09-25T19:56:19.354Z,3.40
2018-09-25T19:58:53.432Z,2.77
2018-09-25T20:01:27.358Z,2.37
2018-09-25T20:04:01.235Z,2.70
2018-09-25T20:06:35.268Z,2.73
2018-09-25T20:09:09.604Z,2.37
2018-09-25T20:11:43.528Z,3.30
2018-09-25T20:14:17.540Z,3.33
2018-09-25T20:16:51.300Z,2.73
2018-09-25T20:19:25.479Z,2.93
2018-09-25T20:21:59.621Z,2.93
2018-09-25T20:24:33.488Z,2.93
